aviador You're here:

CYSC Decoded Metar

SHERBROOKE in QC, CANADA
Report Time2017-03-25 17:00:00
UTC Time2017-03-25 17:26:49
Flight Rules mvfr MVFR
Wind300° at 10 kt
W.Decomp.*RWY 32: 10.0 kt HW 0.5 kt LCW
W.Rank300° ranks 12
Current wind is above 300° avg. (7.9)
Visibility9999 m
Phenomena:N/A
Clouds:Broken 028 Hf
Expected CloudBase > 2,800 ft AGL from Temp-Dew spread
Ceiling2,800 ft
Temp01°C (ISA -12)
Dew Point-6°C (60% RH)
AAT-5.3°C
QNH1026 hPa
Density Alt-1,106 ft
Elevation791 ft
Report Wrong Elevation
Raw Report
CYSC 251700Z AUTO 30010KT 290V030 9SM BKN028 01/M06 A3029 RMK
SLP269=

Extra information for CYSC:More info

Metar Taf Metar & Taf Last 4 Metars F.Rules Stats Wind Profile Meteogram Temp Stats Airport Information Weather charts Add Link Nearby VenuesMetar ALERT Operation Metar Decoded Social comments